Time;durP1;ratioP1;P1;durP2;ratioP2;P2;SDS_P1;SDS_P2;PMS_P1;PMS_P2;Temp;Humidity;BMP_temperature;BMP_pressure;BME280_temperature;BME280_humidity;BME280_pressure;Samples;Min_cycle;Max_cycle;Signal;HPM_P1;HPM_P2
2021/10/15 00:01:55;;;;;;;4.10;2.97;;;;;;;19.34;42.56;100010.72;4970822;23;20208;-81
2021/10/15 00:04:39;;;;;;;4.67;2.80;;;;;;;19.04;43.11;100005.16;4968162;23;20220;-81
2021/10/15 00:07:08;;;;;;;3.70;3.07;;;;;;;18.85;43.83;99997.50;4959563;23;20232;-80
2021/10/15 00:09:38;;;;;;;3.77;3.37;;;;;;;18.69;43.88;99994.97;4972250;23;20301;-80
2021/10/15 00:12:05;;;;;;;3.53;3.00;;;;;;;18.76;44.12;100006.41;4921163;23;1396937;-80
2021/10/15 00:14:32;;;;;;;4.13;3.27;;;;;;;18.72;43.92;100006.13;4954187;28;20174;-80
2021/10/15 00:16:59;;;;;;;4.10;3.53;;;;;;;18.55;44.16;100001.97;4976125;23;20249;-81
2021/10/15 00:19:46;;;;;;;5.50;2.93;;;;;;;18.65;44.29;99997.41;4966804;23;20291;-80
2021/10/15 00:22:14;;;;;;;4.37;3.50;;;;;;;18.59;44.24;100008.50;4959082;23;20233;-82
2021/10/15 00:24:41;;;;;;;4.80;3.60;;;;;;;18.60;44.39;99994.66;4946470;23;20237;-80
2021/10/15 00:27:08;;;;;;;4.43;3.07;;;;;;;18.52;44.15;99975.34;4954157;29;20284;-80
2021/10/15 00:29:38;;;;;;;3.67;3.10;;;;;;;18.70;44.15;99999.34;4938831;29;20243;-80
2021/10/15 00:32:13;;;;;;;4.83;3.50;;;;;;;18.58;44.48;100002.25;4971872;23;20233;-80
2021/10/15 00:34:43;;;;;;;7.43;3.90;;;;;;;18.55;44.88;99991.94;4951487;29;20232;-80
2021/10/15 00:37:47;;;;;;;3.87;3.50;;;;;;;18.67;44.30;99994.41;5111100;23;20223;-80
2021/10/15 00:40:22;;;;;;;4.93;3.40;;;;;;;18.68;44.46;99996.06;4958937;23;20219;-80
2021/10/15 00:42:54;;;;;;;4.17;3.60;;;;;;;18.69;44.55;99993.09;4969650;23;20243;-80
2021/10/15 00:45:27;;;;;;;4.50;3.40;;;;;;;18.58;44.79;99979.72;4987340;23;20224;-80
2021/10/15 00:47:54;;;;;;;3.43;3.13;;;;;;;18.77;44.72;99995.28;4942306;23;20319;-80
2021/10/15 00:50:28;;;;;;;3.50;3.20;;;;;;;18.12;45.97;99986.72;4963803;23;20229;-80
2021/10/15 00:52:55;;;;;;;4.23;3.83;;;;;;;17.98;46.47;99989.88;4939509;23;20225;-80
2021/10/15 00:55:21;;;;;;;3.90;3.50;;;;;;;18.10;46.21;99980.75;4979568;23;20236;-80
2021/10/15 00:57:48;;;;;;;3.63;3.07;;;;;;;18.13;46.18;99983.75;4975657;23;20636;-80
2021/10/15 01:00:20;;;;;;;4.53;3.60;;;;;;;18.17;46.35;99974.03;4968282;23;20312;-80
2021/10/15 01:02:50;;;;;;;4.77;3.63;;;;;;;18.15;46.06;99976.16;4968181;23;20220;-81
2021/10/15 01:05:17;;;;;;;3.63;2.90;;;;;;;18.11;46.36;99964.22;4970226;29;20239;-81
2021/10/15 01:07:45;;;;;;;3.83;3.50;;;;;;;18.04;46.37;99963.63;4955386;29;20224;-80
2021/10/15 01:10:12;;;;;;;5.33;3.93;;;;;;;18.10;45.98;99965.31;4942316;23;20226;-80
2021/10/15 01:12:42;;;;;;;4.73;3.50;;;;;;;18.06;46.13;99952.53;4971674;23;20252;-80
2021/10/15 01:15:10;;;;;;;3.97;3.57;;;;;;;18.17;45.92;99965.88;4965127;23;20299;-80
2021/10/15 01:17:37;;;;;;;6.50;3.70;;;;;;;17.57;47.21;99969.72;4975607;23;20213;-80
2021/10/15 01:20:06;;;;;;;4.33;3.17;;;;;;;17.43;47.63;99956.84;4936499;23;20222;-80
2021/10/15 01:22:33;;;;;;;5.13;3.40;;;;;;;17.38;47.76;99960.31;4957191;23;20246;-80
2021/10/15 01:25:00;;;;;;;3.83;3.37;;;;;;;17.32;47.66;99939.66;4936573;23;20232;-80
2021/10/15 01:27:27;;;;;;;3.87;3.47;;;;;;;17.26;47.51;99946.13;4952896;29;20604;-80
2021/10/15 01:29:53;;;;;;;4.13;3.40;;;;;;;17.27;47.63;99938.78;4952212;29;20233;-80
2021/10/15 01:32:21;;;;;;;3.83;3.50;;;;;;;17.25;47.73;99943.66;4965777;29;20237;-80
2021/10/15 01:34:47;;;;;;;4.00;3.57;;;;;;;17.30;47.77;99952.66;4954896;29;20165;-81
2021/10/15 01:37:17;;;;;;;4.37;3.40;;;;;;;17.29;47.66;99944.78;4970749;29;20245;-80
2021/10/15 01:39:44;;;;;;;4.83;3.70;;;;;;;17.27;47.68;99947.75;4960345;23;20260;-81
2021/10/15 01:42:53;;;;;;;4.03;3.33;;;;;;;17.26;47.70;99945.31;4948180;23;20239;-81
2021/10/15 01:45:14;;;;;;;3.57;3.27;;;;;;;17.25;47.19;99938.25;4972961;23;20208;-80
2021/10/15 01:47:42;;;;;;;5.00;3.80;;;;;;;17.29;47.37;99937.47;4965118;23;20216;-80
2021/10/15 01:50:10;;;;;;;3.67;3.27;;;;;;;17.28;47.53;99935.03;4955706;23;20584;-80
2021/10/15 01:52:40;;;;;;;4.80;3.60;;;;;;;17.24;47.86;99942.03;4943459;23;20221;-80
2021/10/15 01:55:11;;;;;;;4.40;3.30;;;;;;;17.21;48.02;99940.66;4978329;23;20284;-81
2021/10/15 01:58:00;;;;;;;4.43;3.27;;;;;;;17.30;47.69;99941.00;4953129;29;20226;-80
2021/10/15 02:00:32;;;;;;;4.23;3.33;;;;;;;17.26;46.67;99931.78;4952531;29;20197;-80
2021/10/15 02:03:05;;;;;;;4.20;3.20;;;;;;;17.29;47.61;99925.84;4980939;23;20232;-80
2021/10/15 02:05:31;;;;;;;4.00;3.30;;;;;;;17.27;47.59;99917.94;5038515;23;20498;-80
2021/10/15 02:07:58;;;;;;;3.50;3.07;;;;;;;17.29;47.48;99912.28;4968702;23;20237;-80
2021/10/15 02:10:25;;;;;;;3.10;2.90;;;;;;;17.12;47.28;99896.97;4960116;28;20229;-80
2021/10/15 02:13:15;;;;;;;3.77;3.17;;;;;;;17.20;48.21;99911.94;4967563;23;20833;-80
2021/10/15 02:15:49;;;;;;;3.80;3.30;;;;;;;17.19;47.84;99902.19;4990523;23;20229;-79
2021/10/15 02:18:17;;;;;;;4.27;3.23;;;;;;;17.25;47.82;99908.47;4964595;23;20285;-80
2021/10/15 02:21:06;;;;;;;4.10;3.10;;;;;;;17.20;47.83;99901.13;4967957;23;20264;-80
2021/10/15 02:23:33;;;;;;;4.10;3.13;;;;;;;17.26;47.58;99897.38;4961833;23;20262;-80
2021/10/15 02:26:04;;;;;;;3.20;2.90;;;;;;;17.22;47.81;99904.38;4955803;23;20213;-80
2021/10/15 02:28:31;;;;;;;3.13;2.60;;;;;;;17.15;47.96;99890.22;4950284;23;20241;-80
2021/10/15 02:31:00;;;;;;;2.93;2.63;;;;;;;17.17;47.76;99893.47;4972610;23;20256;-80
2021/10/15 02:33:27;;;;;;;4.73;3.07;;;;;;;17.15;47.68;99901.88;4971075;23;20240;-80
2021/10/15 02:36:09;;;;;;;3.00;2.63;;;;;;;17.13;47.83;99892.38;4954156;23;20216;-80
2021/10/15 02:38:41;;;;;;;3.23;2.83;;;;;;;17.12;48.14;99899.66;4971866;23;20248;-80
2021/10/15 02:41:08;;;;;;;3.10;2.87;;;;;;;17.02;48.18;99883.34;4945946;29;20244;-80
2021/10/15 02:43:34;;;;;;;3.80;3.03;;;;;;;17.10;48.04;99895.59;4972545;23;20307;-80
2021/10/15 02:46:04;;;;;;;3.47;3.00;;;;;;;17.08;47.39;99895.03;4946243;29;20215;-81
2021/10/15 02:48:32;;;;;;;3.17;2.87;;;;;;;16.96;48.08;99861.88;4973871;23;20248;-80
2021/10/15 02:50:58;;;;;;;3.20;2.90;;;;;;;17.00;47.89;99879.25;4974041;23;20224;-80
2021/10/15 02:53:25;;;;;;;3.07;2.40;;;;;;;17.00;48.06;99880.06;4962564;29;20241;-80
2021/10/15 02:55:52;;;;;;;2.80;2.60;;;;;;;17.01;48.12;99892.53;4957267;23;20239;-80
2021/10/15 02:58:23;;;;;;;3.23;2.53;;;;;;;17.01;48.02;99884.41;4937081;23;20221;-80
2021/10/15 03:00:52;;;;;;;3.03;2.60;;;;;;;17.05;48.12;99882.81;4967143;23;20233;-80
2021/10/15 03:03:52;;;;;;;3.70;2.80;;;;;;;17.13;48.00;99886.94;4974113;23;20362;-80
2021/10/15 03:06:25;;;;;;;3.23;2.40;;;;;;;17.15;48.22;99887.53;4940509;23;20265;-80
2021/10/15 03:08:54;;;;;;;5.23;2.60;;;;;;;17.05;48.07;99879.28;4924170;23;20230;-80
2021/10/15 03:11:25;;;;;;;2.60;2.40;;;;;;;17.12;48.38;99882.63;4918159;29;20245;-80
2021/10/15 03:13:53;;;;;;;2.53;2.33;;;;;;;17.09;48.20;99883.94;4909615;23;20600;-80
2021/10/15 03:16:19;;;;;;;2.40;2.20;;;;;;;17.11;48.09;99879.09;4964153;23;20505;-81
2021/10/15 03:18:46;;;;;;;2.50;2.30;;;;;;;17.17;47.67;99878.06;4972225;29;20272;-81
2021/10/15 03:21:13;;;;;;;2.23;2.03;;;;;;;17.11;47.62;99881.81;4972143;28;20286;-80
2021/10/15 03:23:41;;;;;;;2.50;2.30;;;;;;;17.27;47.35;99885.47;4954883;29;20511;-80
2021/10/15 03:26:07;;;;;;;2.67;2.20;;;;;;;17.30;46.97;99876.03;4971716;29;20295;-80
2021/10/15 03:28:34;;;;;;;2.83;2.53;;;;;;;17.30;46.89;99874.13;4989991;28;20189;-81
2021/10/15 03:31:01;;;;;;;2.63;2.20;;;;;;;17.23;47.29;99859.97;4980693;23;20319;-80
2021/10/15 03:33:28;;;;;;;2.93;2.30;;;;;;;17.19;47.06;99869.69;4951952;23;20220;-80
2021/10/15 03:35:54;;;;;;;2.80;2.30;;;;;;;17.20;47.33;99868.63;4966384;23;20239;-80
2021/10/15 03:38:21;;;;;;;2.40;2.20;;;;;;;17.15;47.26;99872.09;4957637;23;20232;-80
2021/10/15 03:40:48;;;;;;;2.57;2.20;;;;;;;17.25;47.34;99865.97;4936902;29;20230;-80
2021/10/15 03:43:16;;;;;;;2.50;2.30;;;;;;;17.30;47.19;99866.00;4951938;28;20229;-81
2021/10/15 03:45:42;;;;;;;2.13;2.00;;;;;;;17.28;47.39;99868.16;4984689;23;20273;-80
2021/10/15 03:48:09;;;;;;;2.50;2.20;;;;;;;17.34;47.24;99869.84;4962936;23;20296;-80
2021/10/15 03:51:12;;;;;;;3.00;2.53;;;;;;;17.36;47.13;99866.84;4965655;23;20248;-80
2021/10/15 03:53:43;;;;;;;2.37;2.17;;;;;;;17.30;47.36;99862.47;4978083;23;20224;-80
2021/10/15 03:56:10;;;;;;;3.37;2.40;;;;;;;17.25;47.64;99851.59;4971525;29;20232;-80
2021/10/15 03:58:37;;;;;;;2.67;2.17;;;;;;;17.29;47.48;99853.53;4959518;23;20281;-81
2021/10/15 04:01:04;;;;;;;2.30;2.10;;;;;;;17.31;47.59;99861.41;4965063;23;20594;-80
2021/10/15 04:03:30;;;;;;;2.43;2.23;;;;;;;17.31;47.55;99858.72;4982593;23;20228;-80
2021/10/15 04:06:00;;;;;;;2.17;1.97;;;;;;;17.26;47.90;99851.34;4950797;23;20638;-80
2021/10/15 04:08:27;;;;;;;3.10;2.33;;;;;;;17.30;47.90;99848.94;5002787;23;20251;-80
2021/10/15 04:11:13;;;;;;;2.30;2.10;;;;;;;17.32;47.66;99853.00;4966797;23;20224;-80
2021/10/15 04:14:03;;;;;;;4.30;2.40;;;;;;;17.29;47.98;99852.72;4961468;23;20249;-80
2021/10/15 04:17:01;;;;;;;2.47;2.27;;;;;;;17.07;47.40;99815.72;4965990;23;20602;-80
2021/10/15 04:19:46;;;;;;;3.70;2.20;;;;;;;17.29;47.39;99841.88;4975831;28;20232;-80
2021/10/15 04:22:30;;;;;;;2.30;2.10;;;;;;;17.17;47.39;99840.16;4973715;29;20288;-80
2021/10/15 04:25:09;;;;;;;2.27;1.97;;;;;;;17.16;47.11;99833.13;4983705;23;20229;-80
2021/10/15 04:27:37;;;;;;;2.95;2.33;;;;;;;17.07;47.21;99828.44;4964902;23;20475;-80
2021/10/15 04:30:23;;;;;;;2.40;2.17;;;;;;;17.12;47.31;99834.69;4987308;23;20250;-80
2021/10/15 04:32:50;;;;;;;2.60;2.20;;;;;;;17.06;47.17;99829.50;4955327;29;20239;-81
2021/10/15 04:35:18;;;;;;;2.27;2.03;;;;;;;17.08;46.90;99816.50;4970296;23;20248;-80
2021/10/15 04:37:46;;;;;;;2.23;2.00;;;;;;;17.16;46.81;99830.44;5040357;23;20215;-80
2021/10/15 04:40:13;;;;;;;3.17;1.80;;;;;;;17.21;46.67;99834.25;4965134;23;20253;-81
2021/10/15 04:42:53;;;;;;;2.30;2.10;;;;;;;17.09;46.52;99823.56;4966594;23;20235;-80
2021/10/15 04:45:28;;;;;;;3.47;2.10;;;;;;;17.22;46.83;99836.69;5027716;23;20233;-80
2021/10/15 04:47:57;;;;;;;2.83;2.00;;;;;;;17.13;46.54;99822.78;4958779;29;20280;-80
2021/10/15 04:50:26;;;;;;;29.93;26.70;;;;;;;17.13;46.89;99819.28;4974082;29;20324;-80
2021/10/15 04:57:12;;;;;;;2.40;2.20;;;;;;;17.13;46.57;99816.56;4972855;23;20205;-80
2021/10/15 04:59:51;;;;;;;2.50;2.30;;;;;;;17.05;46.96;99815.16;4974225;23;20263;-80
2021/10/15 05:03:29;;;;;;;2.57;2.37;;;;;;;17.02;47.21;99812.97;4955811;23;20213;-80
2021/10/15 05:06:24;;;;;;;2.40;2.20;;;;;;;17.00;47.18;99804.28;5027522;23;20268;-79
2021/10/15 05:12:00;;;;;;;2.53;2.33;;;;;;;16.99;47.08;99801.81;4949016;23;20225;-80
2021/10/15 05:14:27;;;;;;;2.40;2.20;;;;;;;16.91;47.40;99788.75;4964292;23;20197;-80
2021/10/15 05:16:54;;;;;;;2.47;2.17;;;;;;;16.94;47.57;99799.88;4956355;23;20219;-81
2021/10/15 05:19:34;;;;;;;2.97;2.00;;;;;;;16.95;47.53;99800.72;4960678;23;20228;-80
2021/10/15 05:22:01;;;;;;;2.90;2.10;;;;;;;16.88;47.38;99794.69;4977784;23;20217;-80
2021/10/15 05:24:34;;;;;;;2.77;2.00;;;;;;;16.82;47.69;99777.59;4960187;23;20225;-80
2021/10/15 05:27:38;;;;;;;2.37;2.10;;;;;;;16.87;47.14;99783.06;4987616;23;20291;-80
2021/10/15 05:30:26;;;;;;;2.37;2.17;;;;;;;16.90;47.66;99795.25;4974440;28;20372;-80
2021/10/15 05:33:23;;;;;;;3.20;2.30;;;;;;;16.89;47.33;99805.25;4942884;29;20227;-81
2021/10/15 05:35:52;;;;;;;2.47;2.23;;;;;;;16.86;47.60;99791.41;4973651;23;20237;-80
2021/10/15 05:39:00;;;;;;;4.13;2.47;;;;;;;16.91;47.28;99803.13;5018253;23;20639;-79
2021/10/15 05:41:51;;;;;;;3.70;2.40;;;;;;;16.92;47.21;99790.41;4934492;29;20226;-80
2021/10/15 05:44:22;;;;;;;2.87;2.27;;;;;;;16.92;47.11;99795.81;4947892;23;20251;-80
2021/10/15 05:47:22;;;;;;;2.57;2.07;;;;;;;16.87;47.18;99806.59;4938162;23;21555;-81
2021/10/15 05:50:11;;;;;;;2.20;2.00;;;;;;;16.84;46.92;99805.22;4914550;23;20239;-80
2021/10/15 05:52:48;;;;;;;2.90;2.10;;;;;;;16.79;47.34;99799.75;4934669;23;20246;-80
2021/10/15 06:01:23;;;;;;;2.13;1.93;;;;;;;16.71;47.79;99801.03;4940305;23;20245;-80
2021/10/15 06:14:56;;;;;;;2.83;2.20;;;;;;;16.92;46.77;99791.22;4917005;29;20317;-80
2021/10/15 06:17:23;;;;;;;3.67;2.23;;;;;;;16.88;47.01;99779.28;4895726;29;20639;-80
2021/10/15 06:20:06;;;;;;;2.40;2.20;;;;;;;17.00;46.48;99784.50;4929350;29;20255;-80
2021/10/15 06:23:03;;;;;;;2.40;2.00;;;;;;;16.95;46.72;99768.22;4902604;29;20334;-80
2021/10/15 06:25:40;;;;;;;3.40;3.07;;;;;;;16.98;46.46;99778.56;4926778;23;20218;-80
2021/10/15 06:28:10;;;;;;;2.83;2.50;;;;;;;17.01;46.40;99773.44;4932566;28;20213;-80
2021/10/15 06:30:43;;;;;;;2.07;1.97;;;;;;;17.13;46.37;99784.06;4903145;29;20234;-79
2021/10/15 06:33:11;;;;;;;4.87;2.30;;;;;;;16.88;46.46;99773.06;4907459;29;20236;-81
2021/10/15 06:35:42;;;;;;;4.77;2.40;;;;;;;17.02;46.31;99771.56;4920582;29;20230;-84
2021/10/15 06:38:28;;;;;;;3.40;2.67;;;;;;;17.07;46.45;99779.72;4935470;23;20237;-82
2021/10/15 06:40:56;;;;;;;3.30;2.63;;;;;;;17.09;45.98;99778.38;4952560;23;20221;-81
2021/10/15 06:43:25;;;;;;;3.23;2.37;;;;;;;17.08;45.76;99782.16;4985857;23;20569;31
2021/10/15 06:45:53;;;;;;;3.57;2.50;;;;;;;17.20;45.76;99776.56;4956511;29;20236;-84
2021/10/15 06:48:24;;;;;;;5.97;2.53;;;;;;;17.22;45.79;99776.31;4967317;23;20269;-82
2021/10/15 06:50:51;;;;;;;3.33;2.40;;;;;;;17.06;46.04;99769.97;4979561;28;20242;-82
2021/10/15 06:53:20;;;;;;;3.83;2.70;;;;;;;17.18;45.77;99778.72;4987219;23;20236;-83
2021/10/15 06:55:50;;;;;;;2.87;2.60;;;;;;;17.31;45.79;99786.38;4960217;29;20196;-82
2021/10/15 06:58:28;;;;;;;2.97;2.77;;;;;;;17.40;45.95;99782.16;4970888;23;20231;-82
2021/10/15 07:00:57;;;;;;;3.23;2.50;;;;;;;17.51;45.28;99774.88;4959792;29;20213;-82
2021/10/15 07:03:24;;;;;;;3.73;2.90;;;;;;;17.61;44.96;99774.97;4974873;28;20284;-81
2021/10/15 07:06:00;;;;;;;2.87;2.57;;;;;;;17.69;45.10;99779.91;4980800;23;20208;-82
2021/10/15 07:08:28;;;;;;;3.07;2.77;;;;;;;17.85;44.45;99778.09;4962281;23;20249;-82
2021/10/15 07:11:03;;;;;;;2.80;2.60;;;;;;;17.89;44.63;99780.00;4955689;29;20256;-81
2021/10/15 07:13:32;;;;;;;3.60;2.60;;;;;;;17.90;44.78;99778.94;4957387;29;20270;-82
2021/10/15 07:15:59;;;;;;;3.20;2.80;;;;;;;17.97;44.59;99782.22;4966793;23;20237;-81
2021/10/15 07:18:27;;;;;;;2.83;2.30;;;;;;;18.09;44.57;99789.31;4961055;23;20253;-83
2021/10/15 07:21:00;;;;;;;2.87;2.40;;;;;;;17.99;44.14;99777.34;4963149;23;20242;-82
2021/10/15 07:23:27;;;;;;;3.53;3.10;;;;;;;18.34;44.13;99782.09;4983673;23;20240;-82
2021/10/15 07:26:03;;;;;;;3.40;2.40;;;;;;;18.56;43.97;99790.06;4984366;23;20241;-82
2021/10/15 07:28:32;;;;;;;2.97;2.70;;;;;;;18.54;44.05;99783.25;4970748;23;20213;-82
2021/10/15 07:30:59;;;;;;;3.17;2.30;;;;;;;18.47;43.69;99786.22;4958044;29;20252;-82
2021/10/15 07:33:27;;;;;;;2.90;2.57;;;;;;;18.66;43.36;99781.94;4967674;23;20221;-81
2021/10/15 07:35:56;;;;;;;3.20;2.73;;;;;;;18.64;43.62;99777.84;4954650;29;20214;-82
2021/10/15 07:38:28;;;;;;;2.77;2.57;;;;;;;18.68;43.61;99777.06;4957403;28;20292;-81
2021/10/15 07:40:55;;;;;;;4.57;2.47;;;;;;;18.77;43.21;99785.47;4978068;23;20229;-81
2021/10/15 07:43:51;;;;;;;2.73;2.53;;;;;;;18.94;43.11;99780.63;4930730;23;20229;31
2021/10/15 07:46:40;;;;;;;2.67;2.47;;;;;;;19.00;43.29;99781.41;4920712;29;20298;-81
2021/10/15 07:49:19;;;;;;;3.23;2.93;;;;;;;18.99;42.66;99777.88;4991711;23;20288;-82
2021/10/15 07:52:08;;;;;;;2.80;2.60;;;;;;;19.27;42.55;99771.91;4959792;29;20248;-82
2021/10/15 07:54:36;;;;;;;3.90;3.13;;;;;;;19.33;42.27;99767.28;4975981;29;20235;-82
2021/10/15 07:57:05;;;;;;;4.37;3.40;;;;;;;19.17;42.42;99752.13;4954026;23;20242;-81
2021/10/15 07:59:55;;;;;;;4.70;3.27;;;;;;;19.30;42.25;99768.66;4995541;23;20232;-81
2021/10/15 08:02:26;;;;;;;4.37;3.10;;;;;;;19.44;41.98;99762.69;4963558;23;20269;-82
2021/10/15 08:05:16;;;;;;;4.10;3.40;;;;;;;19.58;41.24;99774.63;4976570;23;20232;-81
2021/10/15 08:07:52;;;;;;;4.10;3.67;;;;;;;19.60;41.89;99762.38;4965870;23;20259;-82
2021/10/15 08:10:25;;;;;;;3.40;3.10;;;;;;;19.99;41.19;99764.44;4959981;29;20176;-81
2021/10/15 08:12:53;;;;;;;3.47;3.17;;;;;;;19.83;41.25;99738.44;4988461;23;20208;-81
2021/10/15 08:15:24;;;;;;;4.40;3.70;;;;;;;20.14;41.31;99745.34;4967197;23;20228;-81
2021/10/15 08:17:54;;;;;;;3.40;3.10;;;;;;;20.28;40.58;99751.00;4954255;29;20256;-81
2021/10/15 08:20:27;;;;;;;3.03;2.73;;;;;;;20.27;40.30;99736.56;4986358;23;20240;-81
2021/10/15 08:22:55;;;;;;;3.43;2.70;;;;;;;20.38;40.15;99746.34;4974684;23;20232;-86
2021/10/15 08:25:28;;;;;;;5.33;3.27;;;;;;;20.45;39.88;99733.22;4931041;29;20296;-86
2021/10/15 08:27:56;;;;;;;3.13;2.30;;;;;;;20.56;39.43;99734.00;4941808;29;20232;-86
2021/10/15 08:30:23;;;;;;;3.47;2.70;;;;;;;20.74;39.61;99749.66;4924698;29;20592;-85
2021/10/15 08:32:52;;;;;;;4.30;2.63;;;;;;;20.60;40.01;99745.94;4940939;29;20304;-88
2021/10/15 08:35:21;;;;;;;3.00;2.20;;;;;;;20.83;39.59;99755.31;4956470;29;20257;-87
2021/10/15 08:37:50;;;;;;;4.10;2.40;;;;;;;21.01;39.56;99749.16;4925552;29;20253;-88
2021/10/15 08:40:17;;;;;;;2.47;2.20;;;;;;;20.91;39.31;99750.06;4940292;29;20307;-89
2021/10/15 08:42:58;;;;;;;2.40;2.20;;;;;;;21.18;38.65;99748.78;4940698;29;20291;-86
2021/10/15 08:45:29;;;;;;;3.57;1.80;;;;;;;21.05;39.06;99742.03;4925829;29;20259;-86
2021/10/15 08:47:57;;;;;;;2.70;1.90;;;;;;;21.33;38.77;99754.09;4923726;29;20233;-84
2021/10/15 08:50:40;;;;;;;2.03;1.83;;;;;;;21.52;38.56;99744.91;4955062;29;20225;-85
2021/10/15 08:53:07;;;;;;;1.80;1.70;;;;;;;21.51;38.01;99735.09;4940648;29;20633;-87
2021/10/15 08:55:33;;;;;;;1.97;1.77;;;;;;;21.55;37.13;99734.53;4943116;28;20594;-87
2021/10/15 08:58:00;;;;;;;2.10;1.40;;;;;;;21.64;37.15;99739.06;4944079;28;20298;-90
2021/10/15 09:00:33;;;;;;;1.37;1.20;;;;;;;21.75;36.74;99735.09;4959231;28;20260;-87
2021/10/15 09:03:13;;;;;;;1.50;1.10;;;;;;;21.63;36.63;99725.72;4926756;29;20529;-84
2021/10/15 09:05:52;;;;;;;0.90;0.90;;;;;;;21.87;36.15;99732.78;4921278;29;20235;-90
2021/10/15 09:08:19;;;;;;;1.17;0.90;;;;;;;21.76;35.99;99730.47;4921019;29;20575;-82
2021/10/15 09:10:46;;;;;;;1.43;0.83;;;;;;;21.81;36.24;99730.41;4922468;29;20235;-91
2021/10/15 09:13:17;;;;;;;0.80;0.80;;;;;;;22.00;35.69;99742.22;4927705;29;20235;-89
2021/10/15 09:15:46;;;;;;;1.67;1.07;;;;;;;22.11;35.35;99727.34;4942801;29;20322;-86
2021/10/15 09:18:18;;;;;;;0.77;0.77;;;;;;;21.94;35.26;99722.34;4943082;29;20263;-82
2021/10/15 09:20:46;;;;;;;0.90;0.77;;;;;;;22.08;34.95;99714.28;4927622;29;20703;-82
2021/10/15 09:23:14;;;;;;;0.97;0.90;;;;;;;22.23;35.29;99733.19;4927657;29;20265;-82
2021/10/15 09:25:44;;;;;;;0.67;0.67;;;;;;;21.98;35.12;99714.41;4927697;29;20234;-90
2021/10/15 09:28:22;;;;;;;1.27;0.90;;;;;;;21.62;35.03;99715.91;4927319;29;20315;-91
2021/10/15 09:30:51;;;;;;;1.73;0.83;;;;;;;22.53;33.52;99718.28;4932229;29;20290;-83
2021/10/15 09:33:19;;;;;;;0.93;0.90;;;;;;;22.13;34.08;99706.03;4946454;28;20239;-87
2021/10/15 09:35:46;;;;;;;1.47;1.33;;;;;;;21.96;34.73;99711.16;4950799;28;20665;-87
2021/10/15 09:38:12;;;;;;;1.07;0.97;;;;;;;21.96;35.01;99702.97;4930403;29;20264;-90
2021/10/15 09:40:46;;;;;;;0.80;0.80;;;;;;;22.32;34.41;99706.84;4946298;29;20319;-88
2021/10/15 09:43:14;;;;;;;1.90;1.67;;;;;;;22.50;34.41;99705.22;4946471;29;20231;-86
2021/10/15 09:45:52;;;;;;;0.90;0.77;;;;;;;22.50;34.30;99707.94;4946576;28;20234;-92
2021/10/15 09:48:27;;;;;;;1.43;1.00;;;;;;;22.47;34.48;99689.44;4937477;29;20223;-84
2021/10/15 09:51:15;;;;;;;2.70;2.10;;;;;;;22.61;34.47;99695.78;4946928;28;20242;-93
2021/10/15 09:54:11;;;;;;;1.30;1.20;;;;;;;22.68;34.34;99687.19;4934746;28;20220;-89
2021/10/15 09:56:54;;;;;;;1.20;1.10;;;;;;;22.75;34.23;99684.94;4945668;28;20659;-91
2021/10/15 09:59:21;;;;;;;1.80;1.37;;;;;;;22.20;34.80;99694.75;4950582;28;20239;-92
2021/10/15 10:01:49;;;;;;;2.30;1.57;;;;;;;22.67;34.38;99677.41;4949917;28;20235;-88
2021/10/15 10:04:16;;;;;;;1.40;1.30;;;;;;;22.94;34.09;99685.69;4946420;28;20221;-90
2021/10/15 10:06:43;;;;;;;1.37;1.27;;;;;;;22.66;33.82;99678.50;4945905;29;20227;-89
2021/10/15 10:09:10;;;;;;;1.60;1.50;;;;;;;23.01;33.70;99680.66;4963315;28;20554;-86
2021/10/15 10:11:37;;;;;;;4.80;3.03;;;;;;;23.02;33.26;99693.22;4946352;29;20544;-90
2021/10/15 10:14:19;;;;;;;2.23;1.37;;;;;;;22.97;33.02;99679.63;4948277;28;20235;-88
2021/10/15 10:16:47;;;;;;;1.73;1.37;;;;;;;22.99;33.34;99682.88;4945897;29;20326;-88
2021/10/15 10:19:15;;;;;;;3.57;1.50;;;;;;;22.89;33.69;99676.78;4949298;29;20240;-85
2021/10/15 10:21:44;;;;;;;2.47;2.17;;;;;;;23.22;33.05;99676.44;4930529;29;20273;-92
2021/10/15 10:24:12;;;;;;;2.30;1.80;;;;;;;23.27;33.09;99665.44;4926581;29;20632;-87
2021/10/15 10:26:43;;;;;;;2.47;1.20;;;;;;;23.39;32.83;99664.91;4927290;29;20239;-83
2021/10/15 10:29:10;;;;;;;1.53;1.10;;;;;;;23.49;32.88;99664.75;4959069;29;20236;-90
2021/10/15 10:31:37;;;;;;;1.20;1.17;;;;;;;23.76;32.48;99657.66;4943025;29;20246;-85
2021/10/15 10:34:07;;;;;;;1.50;1.40;;;;;;;23.66;32.64;99658.66;4926705;29;20263;-88
2021/10/15 10:36:35;;;;;;;1.40;1.30;;;;;;;23.58;32.91;99643.78;4958971;29;20567;-89
2021/10/15 10:39:18;;;;;;;1.57;1.23;;;;;;;23.64;32.51;99644.50;4938317;29;20254;-83
2021/10/15 10:42:24;;;;;;;1.63;1.20;;;;;;;23.57;32.58;99647.63;4930571;29;20237;-85
2021/10/15 10:44:50;;;;;;;2.03;1.50;;;;;;;23.61;32.73;99645.09;4907496;29;20237;-82
2021/10/15 10:47:22;;;;;;;1.20;1.10;;;;;;;23.90;32.54;99633.81;4923392;29;20232;-84
2021/10/15 10:50:09;;;;;;;1.23;1.13;;;;;;;23.79;32.01;99635.97;4939581;29;20636;-89
2021/10/15 10:52:46;;;;;;;1.60;1.40;;;;;;;23.72;32.40;99623.81;4939723;29;20237;-90
2021/10/15 10:55:35;;;;;;;2.17;1.10;;;;;;;23.70;32.10;99630.41;4972575;28;20580;-83
2021/10/15 10:58:29;;;;;;;1.40;1.27;;;;;;;23.80;32.25;99628.56;4961500;28;20225;-82
2021/10/15 11:01:19;;;;;;;1.03;0.90;;;;;;;24.17;32.40;99608.34;4961543;28;20228;-82
2021/10/15 11:03:46;;;;;;;1.13;1.07;;;;;;;23.99;31.80;99610.88;4977205;28;20232;-81
2021/10/15 11:06:13;;;;;;;1.03;1.00;;;;;;;23.74;31.51;99610.66;4934235;29;20647;-87
2021/10/15 11:08:42;;;;;;;1.93;0.90;;;;;;;23.42;31.80;99601.44;4942668;29;20228;-83
2021/10/15 11:11:26;;;;;;;1.60;1.50;;;;;;;23.89;31.67;99607.59;4926765;29;20229;-87
2021/10/15 11:13:53;;;;;;;1.60;1.07;;;;;;;24.14;31.61;99605.06;4959288;29;20233;-90
2021/10/15 11:16:27;;;;;;;0.80;0.80;;;;;;;23.79;31.92;99585.94;4942087;29;22360;-90
2021/10/15 11:18:54;;;;;;;1.10;1.00;;;;;;;23.92;31.83;99598.75;4926375;29;20236;-90
2021/10/15 11:21:22;;;;;;;1.00;0.90;;;;;;;24.09;31.64;99582.47;4926431;29;20501;-89
2021/10/15 11:23:49;;;;;;;2.07;0.90;;;;;;;23.96;31.42;99575.94;4926355;29;20591;-89
2021/10/15 11:26:16;;;;;;;1.33;0.90;;;;;;;23.76;31.61;99564.63;4941495;29;20229;-83
2021/10/15 11:28:42;;;;;;;0.80;0.80;;;;;;;24.03;31.21;99573.56;4942065;29;20288;-85
2021/10/15 11:31:14;;;;;;;0.77;0.77;;;;;;;23.94;31.64;99569.16;4926501;29;20239;-90
2021/10/15 11:33:40;;;;;;;0.60;0.60;;;;;;;24.20;31.17;99578.44;4942161;28;20257;-91
2021/10/15 11:36:07;;;;;;;1.10;1.00;;;;;;;24.01;31.07;99564.06;4940609;29;20324;-85
2021/10/15 11:38:34;;;;;;;1.17;0.80;;;;;;;24.21;31.06;99560.88;4941931;29;20221;-87
2021/10/15 11:41:06;;;;;;;1.30;0.80;;;;;;;24.58;30.40;99554.19;4941744;29;20241;-89
2021/10/15 11:43:38;;;;;;;0.97;0.60;;;;;;;24.72;30.44;99545.91;4926115;29;20319;-88
2021/10/15 11:46:08;;;;;;;0.70;0.70;;;;;;;24.58;30.60;99540.50;4957121;28;20236;-87
2021/10/15 11:48:37;;;;;;;0.97;0.87;;;;;;;24.64;30.25;99543.91;4941862;28;20316;-88
2021/10/15 11:51:15;;;;;;;1.10;1.00;;;;;;;24.58;30.61;99536.97;4941629;29;20251;-89
2021/10/15 11:53:44;;;;;;;1.07;0.90;;;;;;;24.69;30.79;99528.13;4942322;28;20221;-82
2021/10/15 11:56:13;;;;;;;1.07;0.97;;;;;;;24.73;30.55;99520.13;4958028;28;20233;-89
2021/10/15 11:59:00;;;;;;;1.03;0.90;;;;;;;24.69;30.49;99522.66;4941541;29;20234;-88
2021/10/15 12:01:31;;;;;;;0.90;0.90;;;;;;;24.77;30.14;99523.84;4941323;29;20633;-89
2021/10/15 12:04:00;;;;;;;1.70;1.60;;;;;;;24.80;30.31;99510.31;4973241;28;20260;-81
2021/10/15 12:06:41;;;;;;;0.90;0.90;;;;;;;24.84;30.46;99510.47;4957784;28;20229;-82
2021/10/15 12:09:15;;;;;;;1.00;0.90;;;;;;;24.52;29.97;99509.69;4956667;29;20299;-88
2021/10/15 12:11:46;;;;;;;0.80;0.80;;;;;;;24.88;30.05;99511.50;4957245;29;20633;-90
2021/10/15 12:14:31;;;;;;;0.80;0.80;;;;;;;25.10;29.60;99505.94;4941086;29;20586;-89
2021/10/15 12:16:59;;;;;;;0.90;0.80;;;;;;;25.02;29.93;99505.91;4940991;29;20533;-82
2021/10/15 12:19:32;;;;;;;1.20;1.10;;;;;;;25.05;29.56;99500.63;4957246;29;20233;-89
2021/10/15 12:22:02;;;;;;;0.80;0.80;;;;;;;25.11;29.39;99509.47;4925109;29;20667;-89
2021/10/15 12:24:30;;;;;;;1.13;0.90;;;;;;;25.01;29.63;99502.34;4940699;29;20233;-87
2021/10/15 12:27:04;;;;;;;0.77;0.77;;;;;;;24.89;29.74;99488.44;4941350;29;20231;-86